sensor_id;sensor_type;location;lat;lon;timestamp;temperature;humidity
18506;DHT22;9382;53.242;10.438;2023-02-26T00:02:00;-0.10;99.90
18506;DHT22;9382;53.242;10.438;2023-02-26T00:04:27;-0.10;99.90
18506;DHT22;9382;53.242;10.438;2023-02-26T00:06:54;-0.10;99.90
18506;DHT22;9382;53.242;10.438;2023-02-26T00:09:21;-0.10;99.90
18506;DHT22;9382;53.242;10.438;2023-02-26T00:11:48;0.00;99.90
18506;DHT22;9382;53.242;10.438;2023-02-26T00:14:16;0.00;99.90
18506;DHT22;9382;53.242;10.438;2023-02-26T00:16:46;0.00;99.90
18506;DHT22;9382;53.242;10.438;2023-02-26T00:19:16;0.00;99.90
18506;DHT22;9382;53.242;10.438;2023-02-26T00:21:45;0.00;99.90
18506;DHT22;9382;53.242;10.438;2023-02-26T00:24:11;0.00;99.90
18506;DHT22;9382;53.242;10.438;2023-02-26T00:26:38;0.00;99.90
18506;DHT22;9382;53.242;10.438;2023-02-26T00:29:06;0.00;99.90
18506;DHT22;9382;53.242;10.438;2023-02-26T00:31:33;0.00;99.90
18506;DHT22;9382;53.242;10.438;2023-02-26T00:34:00;0.10;99.90
18506;DHT22;9382;53.242;10.438;2023-02-26T00:36:38;0.10;99.90
18506;DHT22;9382;53.242;10.438;2023-02-26T00:39:14;0.10;99.90
18506;DHT22;9382;53.242;10.438;2023-02-26T00:41:47;0.10;99.90
18506;DHT22;9382;53.242;10.438;2023-02-26T00:44:14;0.10;99.90
18506;DHT22;9382;53.242;10.438;2023-02-26T00:46:44;0.10;99.90
18506;DHT22;9382;53.242;10.438;2023-02-26T00:49:21;0.00;99.90
18506;DHT22;9382;53.242;10.438;2023-02-26T00:51:52;0.00;99.90
18506;DHT22;9382;53.242;10.438;2023-02-26T00:54:22;0.10;99.90
18506;DHT22;9382;53.242;10.438;2023-02-26T00:56:50;0.10;99.90
18506;DHT22;9382;53.242;10.438;2023-02-26T00:59:18;0.10;99.90
18506;DHT22;9382;53.242;10.438;2023-02-26T01:01:45;0.10;99.90
18506;DHT22;9382;53.242;10.438;2023-02-26T01:04:12;0.10;99.90
18506;DHT22;9382;53.242;10.438;2023-02-26T01:06:43;0.20;99.90
18506;DHT22;9382;53.242;10.438;2023-02-26T01:09:17;0.10;99.90
18506;DHT22;9382;53.242;10.438;2023-02-26T01:11:46;0.10;99.90
18506;DHT22;9382;53.242;10.438;2023-02-26T01:14:13;0.10;99.90
18506;DHT22;9382;53.242;10.438;2023-02-26T01:16:50;0.10;99.90
18506;DHT22;9382;53.242;10.438;2023-02-26T01:19:24;0.20;99.90
18506;DHT22;9382;53.242;10.438;2023-02-26T01:21:59;0.20;99.90
18506;DHT22;9382;53.242;10.438;2023-02-26T01:24:30;0.20;99.90
18506;DHT22;9382;53.242;10.438;2023-02-26T01:26:57;0.20;99.90
18506;DHT22;9382;53.242;10.438;2023-02-26T01:29:24;0.20;99.90
18506;DHT22;9382;53.242;10.438;2023-02-26T01:31:56;0.30;99.90
18506;DHT22;9382;53.242;10.438;2023-02-26T01:34:30;0.30;99.90
18506;DHT22;9382;53.242;10.438;2023-02-26T01:37:06;0.30;99.90
18506;DHT22;9382;53.242;10.438;2023-02-26T01:39:39;0.30;99.90
18506;DHT22;9382;53.242;10.438;2023-02-26T01:42:14;0.30;99.90
18506;DHT22;9382;53.242;10.438;2023-02-26T01:44:51;0.30;99.90
18506;DHT22;9382;53.242;10.438;2023-02-26T01:47:24;0.20;99.90
18506;DHT22;9382;53.242;10.438;2023-02-26T01:49:53;0.30;99.90
18506;DHT22;9382;53.242;10.438;2023-02-26T01:55:32;0.20;99.90
18506;DHT22;9382;53.242;10.438;2023-02-26T01:57:59;0.20;99.90
18506;DHT22;9382;53.242;10.438;2023-02-26T02:00:29;0.20;99.90
18506;DHT22;9382;53.242;10.438;2023-02-26T02:02:56;0.20;99.90
18506;DHT22;9382;53.242;10.438;2023-02-26T02:05:27;0.20;99.90
18506;DHT22;9382;53.242;10.438;2023-02-26T02:07:55;0.10;99.90
18506;DHT22;9382;53.242;10.438;2023-02-26T02:10:23;0.10;99.90
18506;DHT22;9382;53.242;10.438;2023-02-26T02:12:57;0.00;99.90
18506;DHT22;9382;53.242;10.438;2023-02-26T02:15:35;-0.10;99.90
18506;DHT22;9382;53.242;10.438;2023-02-26T02:18:10;-0.10;99.90
18506;DHT22;9382;53.242;10.438;2023-02-26T02:21:02;-0.20;99.90
18506;DHT22;9382;53.242;10.438;2023-02-26T02:23:38;-0.20;99.90
18506;DHT22;9382;53.242;10.438;2023-02-26T02:26:18;-0.20;99.90
18506;DHT22;9382;53.242;10.438;2023-02-26T02:29:14;-0.20;99.90
18506;DHT22;9382;53.242;10.438;2023-02-26T02:31:53;-0.20;99.90
18506;DHT22;9382;53.242;10.438;2023-02-26T02:34:24;-0.30;99.90
18506;DHT22;9382;53.242;10.438;2023-02-26T02:36:56;-0.30;99.90
18506;DHT22;9382;53.242;10.438;2023-02-26T02:39:27;-0.30;99.90
18506;DHT22;9382;53.242;10.438;2023-02-26T02:41:58;-0.40;99.90
18506;DHT22;9382;53.242;10.438;2023-02-26T02:44:27;-0.50;99.90
18506;DHT22;9382;53.242;10.438;2023-02-26T02:46:57;-0.60;99.90
18506;DHT22;9382;53.242;10.438;2023-02-26T02:49:28;-0.60;99.90
18506;DHT22;9382;53.242;10.438;2023-02-26T02:51:59;-0.60;99.90
18506;DHT22;9382;53.242;10.438;2023-02-26T02:54:32;-0.70;99.90
18506;DHT22;9382;53.242;10.438;2023-02-26T02:57:03;-0.80;99.90
18506;DHT22;9382;53.242;10.438;2023-02-26T02:59:34;-0.90;99.90
18506;DHT22;9382;53.242;10.438;2023-02-26T03:02:09;-0.90;99.90
18506;DHT22;9382;53.242;10.438;2023-02-26T03:04:37;-0.90;99.90
18506;DHT22;9382;53.242;10.438;2023-02-26T03:07:04;-1.00;99.90
18506;DHT22;9382;53.242;10.438;2023-02-26T03:09:31;-1.00;99.90
18506;DHT22;9382;53.242;10.438;2023-02-26T03:11:58;-1.00;99.90
18506;DHT22;9382;53.242;10.438;2023-02-26T03:14:25;-1.10;99.90
18506;DHT22;9382;53.242;10.438;2023-02-26T03:17:06;-1.10;99.90
18506;DHT22;9382;53.242;10.438;2023-02-26T03:19:40;-1.20;99.90
18506;DHT22;9382;53.242;10.438;2023-02-26T03:22:13;-1.20;99.90
18506;DHT22;9382;53.242;10.438;2023-02-26T03:24:48;-1.30;99.90
18506;DHT22;9382;53.242;10.438;2023-02-26T03:27:20;-1.40;99.90
18506;DHT22;9382;53.242;10.438;2023-02-26T03:29:52;-1.40;99.90
18506;DHT22;9382;53.242;10.438;2023-02-26T03:32:24;-1.50;99.90
18506;DHT22;9382;53.242;10.438;2023-02-26T03:34:56;-1.50;99.90
18506;DHT22;9382;53.242;10.438;2023-02-26T03:37:26;-1.50;99.90
18506;DHT22;9382;53.242;10.438;2023-02-26T03:39:58;-1.60;99.90
18506;DHT22;9382;53.242;10.438;2023-02-26T03:42:29;-1.60;99.90
18506;DHT22;9382;53.242;10.438;2023-02-26T03:45:00;-1.70;99.90
18506;DHT22;9382;53.242;10.438;2023-02-26T03:47:31;-1.70;99.90
18506;DHT22;9382;53.242;10.438;2023-02-26T03:50:01;-1.70;99.90
18506;DHT22;9382;53.242;10.438;2023-02-26T03:52:31;-1.80;99.90
18506;DHT22;9382;53.242;10.438;2023-02-26T03:55:02;-1.80;99.90
18506;DHT22;9382;53.242;10.438;2023-02-26T03:57:30;-1.90;99.90
18506;DHT22;9382;53.242;10.438;2023-02-26T03:59:57;-1.90;99.90
18506;DHT22;9382;53.242;10.438;2023-02-26T04:02:26;-2.00;99.90
18506;DHT22;9382;53.242;10.438;2023-02-26T04:04:59;-2.00;99.90
18506;DHT22;9382;53.242;10.438;2023-02-26T04:07:27;-2.10;99.90
18506;DHT22;9382;53.242;10.438;2023-02-26T04:09:55;-2.10;99.90
18506;DHT22;9382;53.242;10.438;2023-02-26T04:12:23;-2.10;99.90
18506;DHT22;9382;53.242;10.438;2023-02-26T04:14:50;-2.10;99.90
18506;DHT22;9382;53.242;10.438;2023-02-26T04:17:17;-2.10;99.90
18506;DHT22;9382;53.242;10.438;2023-02-26T04:19:44;-2.20;99.90
18506;DHT22;9382;53.242;10.438;2023-02-26T04:22:12;-2.20;99.90
18506;DHT22;9382;53.242;10.438;2023-02-26T04:24:39;-2.10;99.90
18506;DHT22;9382;53.242;10.438;2023-02-26T04:27:06;-2.10;99.90
18506;DHT22;9382;53.242;10.438;2023-02-26T04:29:32;-2.10;99.90
18506;DHT22;9382;53.242;10.438;2023-02-26T04:31:59;-2.20;99.90
18506;DHT22;9382;53.242;10.438;2023-02-26T04:34:26;-2.20;99.90
18506;DHT22;9382;53.242;10.438;2023-02-26T04:36:53;-2.20;99.90
18506;DHT22;9382;53.242;10.438;2023-02-26T04:39:21;-2.20;99.90
18506;DHT22;9382;53.242;10.438;2023-02-26T04:41:47;-2.20;99.90
18506;DHT22;9382;53.242;10.438;2023-02-26T04:44:14;-2.20;99.90
18506;DHT22;9382;53.242;10.438;2023-02-26T04:46:41;-2.20;99.90
18506;DHT22;9382;53.242;10.438;2023-02-26T04:49:08;-2.20;99.90
18506;DHT22;9382;53.242;10.438;2023-02-26T04:51:35;-2.20;99.90
18506;DHT22;9382;53.242;10.438;2023-02-26T04:54:01;-2.10;99.90
18506;DHT22;9382;53.242;10.438;2023-02-26T04:56:29;-2.10;99.90
18506;DHT22;9382;53.242;10.438;2023-02-26T04:58:57;-2.20;99.90
18506;DHT22;9382;53.242;10.438;2023-02-26T05:01:23;-2.20;99.90
18506;DHT22;9382;53.242;10.438;2023-02-26T05:03:50;-2.20;99.90
18506;DHT22;9382;53.242;10.438;2023-02-26T05:06:17;-2.20;99.90
18506;DHT22;9382;53.242;10.438;2023-02-26T05:08:43;-2.20;99.90
18506;DHT22;9382;53.242;10.438;2023-02-26T05:11:10;-2.20;99.90
18506;DHT22;9382;53.242;10.438;2023-02-26T05:13:39;-2.20;99.90
18506;DHT22;9382;53.242;10.438;2023-02-26T05:16:06;-2.20;99.90
18506;DHT22;9382;53.242;10.438;2023-02-26T05:18:33;-2.20;99.90
18506;DHT22;9382;53.242;10.438;2023-02-26T05:21:00;-2.20;99.90
18506;DHT22;9382;53.242;10.438;2023-02-26T05:23:27;-2.20;99.90
18506;DHT22;9382;53.242;10.438;2023-02-26T05:25:54;-2.20;99.90
18506;DHT22;9382;53.242;10.438;2023-02-26T05:28:22;-2.20;99.90
18506;DHT22;9382;53.242;10.438;2023-02-26T05:30:50;-2.20;99.90
18506;DHT22;9382;53.242;10.438;2023-02-26T05:33:17;-2.20;99.90
18506;DHT22;9382;53.242;10.438;2023-02-26T05:35:45;-2.30;99.90
18506;DHT22;9382;53.242;10.438;2023-02-26T05:38:12;-2.20;99.90
18506;DHT22;9382;53.242;10.438;2023-02-26T05:40:39;-2.30;99.90
18506;DHT22;9382;53.242;10.438;2023-02-26T05:43:06;-2.30;99.90
18506;DHT22;9382;53.242;10.438;2023-02-26T05:45:33;-2.30;99.90
18506;DHT22;9382;53.242;10.438;2023-02-26T05:48:01;-2.30;99.90
18506;DHT22;9382;53.242;10.438;2023-02-26T05:50:28;-2.40;99.90
18506;DHT22;9382;53.242;10.438;2023-02-26T05:52:56;-2.40;99.90
18506;DHT22;9382;53.242;10.438;2023-02-26T05:55:23;-2.40;99.90
18506;DHT22;9382;53.242;10.438;2023-02-26T05:57:50;-2.40;99.90
18506;DHT22;9382;53.242;10.438;2023-02-26T06:00:17;-2.40;99.90
18506;DHT22;9382;53.242;10.438;2023-02-26T06:02:44;-2.40;99.90
18506;DHT22;9382;53.242;10.438;2023-02-26T06:05:12;-2.50;99.90
18506;DHT22;9382;53.242;10.438;2023-02-26T06:07:39;-2.50;99.90
18506;DHT22;9382;53.242;10.438;2023-02-26T06:10:07;-2.40;99.90
18506;DHT22;9382;53.242;10.438;2023-02-26T06:12:34;-2.50;99.90
18506;DHT22;9382;53.242;10.438;2023-02-26T06:15:01;-2.50;99.90
18506;DHT22;9382;53.242;10.438;2023-02-26T06:17:28;-2.50;99.90
18506;DHT22;9382;53.242;10.438;2023-02-26T06:19:54;-2.50;99.90
18506;DHT22;9382;53.242;10.438;2023-02-26T06:22:22;-2.50;99.90
18506;DHT22;9382;53.242;10.438;2023-02-26T06:24:49;-2.50;99.90
18506;DHT22;9382;53.242;10.438;2023-02-26T06:27:16;-2.50;99.90
18506;DHT22;9382;53.242;10.438;2023-02-26T06:29:43;-2.50;99.90
18506;DHT22;9382;53.242;10.438;2023-02-26T06:32:10;-2.40;99.90
18506;DHT22;9382;53.242;10.438;2023-02-26T06:34:36;-2.40;99.90
18506;DHT22;9382;53.242;10.438;2023-02-26T06:37:03;-2.40;99.90
18506;DHT22;9382;53.242;10.438;2023-02-26T06:39:31;-2.40;99.90
18506;DHT22;9382;53.242;10.438;2023-02-26T06:41:58;-2.40;99.90
18506;DHT22;9382;53.242;10.438;2023-02-26T06:44:25;-2.30;99.90
18506;DHT22;9382;53.242;10.438;2023-02-26T06:46:52;-2.30;99.90
18506;DHT22;9382;53.242;10.438;2023-02-26T06:49:19;-2.30;99.90
18506;DHT22;9382;53.242;10.438;2023-02-26T06:51:46;-2.30;99.90
18506;DHT22;9382;53.242;10.438;2023-02-26T06:54:12;-2.20;99.90
18506;DHT22;9382;53.242;10.438;2023-02-26T06:56:40;-2.20;99.90
18506;DHT22;9382;53.242;10.438;2023-02-26T06:59:07;-2.10;99.90
18506;DHT22;9382;53.242;10.438;2023-02-26T07:01:34;-2.10;99.90
18506;DHT22;9382;53.242;10.438;2023-02-26T07:04:00;-2.00;99.90
18506;DHT22;9382;53.242;10.438;2023-02-26T07:06:27;-1.90;99.90
18506;DHT22;9382;53.242;10.438;2023-02-26T07:08:54;-1.90;99.90
18506;DHT22;9382;53.242;10.438;2023-02-26T07:11:21;-1.80;99.90
18506;DHT22;9382;53.242;10.438;2023-02-26T07:13:49;-1.70;99.90
18506;DHT22;9382;53.242;10.438;2023-02-26T07:16:16;-1.70;99.90
18506;DHT22;9382;53.242;10.438;2023-02-26T07:18:43;-1.50;99.90
18506;DHT22;9382;53.242;10.438;2023-02-26T07:21:10;-1.50;99.90
18506;DHT22;9382;53.242;10.438;2023-02-26T07:23:37;-1.40;99.90
18506;DHT22;9382;53.242;10.438;2023-02-26T07:26:04;-1.20;99.90
18506;DHT22;9382;53.242;10.438;2023-02-26T07:28:30;-1.20;99.90
18506;DHT22;9382;53.242;10.438;2023-02-26T07:30:58;-1.10;99.90
18506;DHT22;9382;53.242;10.438;2023-02-26T07:33:25;-1.00;99.90
18506;DHT22;9382;53.242;10.438;2023-02-26T07:35:53;-0.90;99.90
18506;DHT22;9382;53.242;10.438;2023-02-26T07:38:20;-0.80;99.90
18506;DHT22;9382;53.242;10.438;2023-02-26T07:40:46;-0.70;99.90
18506;DHT22;9382;53.242;10.438;2023-02-26T07:43:13;-0.60;99.90
18506;DHT22;9382;53.242;10.438;2023-02-26T07:45:40;-0.50;99.90
18506;DHT22;9382;53.242;10.438;2023-02-26T07:48:08;-0.40;99.90
18506;DHT22;9382;53.242;10.438;2023-02-26T07:50:35;-0.30;99.90
18506;DHT22;9382;53.242;10.438;2023-02-26T07:53:02;-0.20;99.90
18506;DHT22;9382;53.242;10.438;2023-02-26T07:55:28;-0.10;99.90
18506;DHT22;9382;53.242;10.438;2023-02-26T07:57:55;-0.10;99.90
18506;DHT22;9382;53.242;10.438;2023-02-26T08:00:22;0.00;99.90
18506;DHT22;9382;53.242;10.438;2023-02-26T08:02:48;0.20;99.90
18506;DHT22;9382;53.242;10.438;2023-02-26T08:05:17;0.30;99.90
18506;DHT22;9382;53.242;10.438;2023-02-26T08:07:44;0.40;99.90
18506;DHT22;9382;53.242;10.438;2023-02-26T08:10:11;0.50;99.90
18506;DHT22;9382;53.242;10.438;2023-02-26T08:12:38;0.60;99.90
18506;DHT22;9382;53.242;10.438;2023-02-26T08:15:05;0.60;99.90
18506;DHT22;9382;53.242;10.438;2023-02-26T08:17:33;0.80;99.90
18506;DHT22;9382;53.242;10.438;2023-02-26T08:19:59;0.90;99.90
18506;DHT22;9382;53.242;10.438;2023-02-26T08:22:27;1.00;99.90
18506;DHT22;9382;53.242;10.438;2023-02-26T08:24:54;1.10;99.90
18506;DHT22;9382;53.242;10.438;2023-02-26T08:27:21;1.20;99.90
18506;DHT22;9382;53.242;10.438;2023-02-26T08:29:48;1.40;99.90
18506;DHT22;9382;53.242;10.438;2023-02-26T08:32:15;1.50;99.90
18506;DHT22;9382;53.242;10.438;2023-02-26T08:34:44;1.70;99.90
18506;DHT22;9382;53.242;10.438;2023-02-26T08:37:10;1.80;99.90
18506;DHT22;9382;53.242;10.438;2023-02-26T08:39:39;1.80;99.90
18506;DHT22;9382;53.242;10.438;2023-02-26T08:42:07;1.90;99.90
18506;DHT22;9382;53.242;10.438;2023-02-26T08:44:34;2.00;99.90
18506;DHT22;9382;53.242;10.438;2023-02-26T08:47:01;2.10;99.90
18506;DHT22;9382;53.242;10.438;2023-02-26T08:49:28;2.30;99.90
18506;DHT22;9382;53.242;10.438;2023-02-26T08:51:55;2.50;99.90
18506;DHT22;9382;53.242;10.438;2023-02-26T08:54:21;2.70;99.90
18506;DHT22;9382;53.242;10.438;2023-02-26T08:56:49;2.80;99.90
18506;DHT22;9382;53.242;10.438;2023-02-26T08:59:18;2.90;99.90
18506;DHT22;9382;53.242;10.438;2023-02-26T09:01:44;2.90;99.90
18506;DHT22;9382;53.242;10.438;2023-02-26T09:04:11;3.10;99.90
18506;DHT22;9382;53.242;10.438;2023-02-26T09:06:38;3.20;99.90
18506;DHT22;9382;53.242;10.438;2023-02-26T09:09:05;3.30;99.90
18506;DHT22;9382;53.242;10.438;2023-02-26T09:11:31;3.40;99.90
18506;DHT22;9382;53.242;10.438;2023-02-26T09:13:59;3.40;99.90
18506;DHT22;9382;53.242;10.438;2023-02-26T09:16:28;3.40;99.90
18506;DHT22;9382;53.242;10.438;2023-02-26T09:18:55;3.60;99.90
18506;DHT22;9382;53.242;10.438;2023-02-26T09:21:22;3.70;99.90
18506;DHT22;9382;53.242;10.438;2023-02-26T09:23:49;3.80;99.90
18506;DHT22;9382;53.242;10.438;2023-02-26T09:26:15;4.00;99.90
18506;DHT22;9382;53.242;10.438;2023-02-26T09:28:42;4.30;99.90
18506;DHT22;9382;53.242;10.438;2023-02-26T09:31:10;4.40;99.90
18506;DHT22;9382;53.242;10.438;2023-02-26T09:33:37;4.40;99.90
18506;DHT22;9382;53.242;10.438;2023-02-26T09:36:04;4.40;99.90
18506;DHT22;9382;53.242;10.438;2023-02-26T09:38:32;4.50;99.90
18506;DHT22;9382;53.242;10.438;2023-02-26T09:41:03;4.60;99.90
18506;DHT22;9382;53.242;10.438;2023-02-26T09:46:30;4.80;99.90
18506;DHT22;9382;53.242;10.438;2023-02-26T09:49:05;4.80;99.90
18506;DHT22;9382;53.242;10.438;2023-02-26T09:51:35;4.90;99.90
18506;DHT22;9382;53.242;10.438;2023-02-26T09:54:11;5.10;99.90
18506;DHT22;9382;53.242;10.438;2023-02-26T09:56:40;5.30;99.90
18506;DHT22;9382;53.242;10.438;2023-02-26T09:59:08;5.40;99.90
18506;DHT22;9382;53.242;10.438;2023-02-26T10:01:40;5.60;99.90
18506;DHT22;9382;53.242;10.438;2023-02-26T10:04:15;5.70;99.90
18506;DHT22;9382;53.242;10.438;2023-02-26T10:06:52;5.90;99.90
18506;DHT22;9382;53.242;10.438;2023-02-26T10:09:32;6.00;99.90
18506;DHT22;9382;53.242;10.438;2023-02-26T10:12:05;6.10;99.90
18506;DHT22;9382;53.242;10.438;2023-02-26T10:14:37;6.30;99.90
18506;DHT22;9382;53.242;10.438;2023-02-26T10:17:14;6.30;99.90
18506;DHT22;9382;53.242;10.438;2023-02-26T10:19:44;6.40;99.90
18506;DHT22;9382;53.242;10.438;2023-02-26T10:22:16;6.40;99.90
18506;DHT22;9382;53.242;10.438;2023-02-26T10:24:51;6.50;99.90
18506;DHT22;9382;53.242;10.438;2023-02-26T10:27:23;6.50;99.90
18506;DHT22;9382;53.242;10.438;2023-02-26T10:29:58;6.50;99.90
18506;DHT22;9382;53.242;10.438;2023-02-26T10:32:33;6.60;99.90
18506;DHT22;9382;53.242;10.438;2023-02-26T10:35:04;6.60;99.90
18506;DHT22;9382;53.242;10.438;2023-02-26T10:37:41;6.60;99.90
18506;DHT22;9382;53.242;10.438;2023-02-26T10:40:13;6.50;99.90
18506;DHT22;9382;53.242;10.438;2023-02-26T10:42:45;6.40;99.90
18506;DHT22;9382;53.242;10.438;2023-02-26T10:45:24;6.30;99.90
18506;DHT22;9382;53.242;10.438;2023-02-26T10:48:00;6.30;99.90
18506;DHT22;9382;53.242;10.438;2023-02-26T10:50:30;6.60;99.90
18506;DHT22;9382;53.242;10.438;2023-02-26T10:52:57;6.70;99.90
18506;DHT22;9382;53.242;10.438;2023-02-26T10:55:38;6.80;99.90
18506;DHT22;9382;53.242;10.438;2023-02-26T10:58:12;7.00;99.90
18506;DHT22;9382;53.242;10.438;2023-02-26T11:00:40;6.80;99.90
18506;DHT22;9382;53.242;10.438;2023-02-26T11:03:14;7.00;99.90
18506;DHT22;9382;53.242;10.438;2023-02-26T11:05:41;7.30;99.90
18506;DHT22;9382;53.242;10.438;2023-02-26T11:08:12;7.40;99.90
18506;DHT22;9382;53.242;10.438;2023-02-26T11:10:46;7.40;99.90
18506;DHT22;9382;53.242;10.438;2023-02-26T11:13:14;7.60;99.90
18506;DHT22;9382;53.242;10.438;2023-02-26T11:15:41;7.80;99.90
18506;DHT22;9382;53.242;10.438;2023-02-26T11:18:13;8.10;99.90
18506;DHT22;9382;53.242;10.438;2023-02-26T11:20:44;8.50;99.90
18506;DHT22;9382;53.242;10.438;2023-02-26T11:23:12;8.70;99.90
18506;DHT22;9382;53.242;10.438;2023-02-26T11:25:40;9.00;99.90
18506;DHT22;9382;53.242;10.438;2023-02-26T11:28:19;9.00;99.90
18506;DHT22;9382;53.242;10.438;2023-02-26T11:30:46;9.40;99.90
18506;DHT22;9382;53.242;10.438;2023-02-26T11:33:22;9.50;99.90
18506;DHT22;9382;53.242;10.438;2023-02-26T11:35:49;9.70;99.90
18506;DHT22;9382;53.242;10.438;2023-02-26T11:38:20;10.30;99.90
18506;DHT22;9382;53.242;10.438;2023-02-26T11:40:51;10.90;99.90
18506;DHT22;9382;53.242;10.438;2023-02-26T11:43:21;11.30;99.90
18506;DHT22;9382;53.242;10.438;2023-02-26T11:45:53;11.50;99.90
18506;DHT22;9382;53.242;10.438;2023-02-26T11:48:23;11.50;99.90
18506;DHT22;9382;53.242;10.438;2023-02-26T11:50:54;11.90;99.90
18506;DHT22;9382;53.242;10.438;2023-02-26T11:53:25;11.70;99.90
18506;DHT22;9382;53.242;10.438;2023-02-26T11:55:59;11.10;99.90
18506;DHT22;9382;53.242;10.438;2023-02-26T11:58:29;10.40;99.90
18506;DHT22;9382;53.242;10.438;2023-02-26T12:01:01;10.90;99.90
18506;DHT22;9382;53.242;10.438;2023-02-26T12:03:31;11.70;99.90
18506;DHT22;9382;53.242;10.438;2023-02-26T12:06:00;11.60;99.90
18506;DHT22;9382;53.242;10.438;2023-02-26T12:08:30;11.00;99.90
18506;DHT22;9382;53.242;10.438;2023-02-26T12:14:21;10.20;99.90
18506;DHT22;9382;53.242;10.438;2023-02-26T12:17:03;10.30;99.90
18506;DHT22;9382;53.242;10.438;2023-02-26T12:19:40;10.00;99.90
18506;DHT22;9382;53.242;10.438;2023-02-26T12:28:27;13.00;99.90
18506;DHT22;9382;53.242;10.438;2023-02-26T12:31:27;13.30;99.90
18506;DHT22;9382;53.242;10.438;2023-02-26T12:34:03;12.40;99.90
18506;DHT22;9382;53.242;10.438;2023-02-26T12:36:47;11.60;99.90
18506;DHT22;9382;53.242;10.438;2023-02-26T12:39:28;10.70;99.90
18506;DHT22;9382;53.242;10.438;2023-02-26T12:42:07;9.90;99.90
18506;DHT22;9382;53.242;10.438;2023-02-26T12:47:50;8.70;99.90
18506;DHT22;9382;53.242;10.438;2023-02-26T12:50:30;8.30;99.90
18506;DHT22;9382;53.242;10.438;2023-02-26T12:53:26;8.00;99.90
18506;DHT22;9382;53.242;10.438;2023-02-26T12:56:06;7.80;99.90
18506;DHT22;9382;53.242;10.438;2023-02-26T13:01:47;7.80;99.90
18506;DHT22;9382;53.242;10.438;2023-02-26T13:07:51;9.10;99.90
18506;DHT22;9382;53.242;10.438;2023-02-26T13:10:28;9.30;99.90
18506;DHT22;9382;53.242;10.438;2023-02-26T13:13:07;9.20;99.90
18506;DHT22;9382;53.242;10.438;2023-02-26T13:15:48;9.60;99.90
18506;DHT22;9382;53.242;10.438;2023-02-26T13:18:23;9.80;99.90
18506;DHT22;9382;53.242;10.438;2023-02-26T13:20:56;10.50;99.90
18506;DHT22;9382;53.242;10.438;2023-02-26T13:23:29;10.60;99.90
18506;DHT22;9382;53.242;10.438;2023-02-26T13:25:59;10.30;99.90
18506;DHT22;9382;53.242;10.438;2023-02-26T13:28:36;9.70;99.90
18506;DHT22;9382;53.242;10.438;2023-02-26T13:31:05;9.10;99.90
18506;DHT22;9382;53.242;10.438;2023-02-26T13:33:33;8.30;99.90
18506;DHT22;9382;53.242;10.438;2023-02-26T13:36:01;7.80;99.90
18506;DHT22;9382;53.242;10.438;2023-02-26T13:38:37;7.50;99.90
18506;DHT22;9382;53.242;10.438;2023-02-26T13:41:14;7.20;99.90
18506;DHT22;9382;53.242;10.438;2023-02-26T13:43:59;6.90;99.90
18506;DHT22;9382;53.242;10.438;2023-02-26T13:46:40;6.80;99.90
18506;DHT22;9382;53.242;10.438;2023-02-26T13:49:14;6.70;99.90
18506;DHT22;9382;53.242;10.438;2023-02-26T13:51:43;6.40;99.90
18506;DHT22;9382;53.242;10.438;2023-02-26T13:54:33;6.20;99.90
18506;DHT22;9382;53.242;10.438;2023-02-26T13:57:22;6.10;99.90
18506;DHT22;9382;53.242;10.438;2023-02-26T13:59:58;6.00;99.90
18506;DHT22;9382;53.242;10.438;2023-02-26T14:02:43;6.00;99.90
18506;DHT22;9382;53.242;10.438;2023-02-26T14:05:35;5.90;99.90
18506;DHT22;9382;53.242;10.438;2023-02-26T14:08:43;5.80;99.90
18506;DHT22;9382;53.242;10.438;2023-02-26T14:14:38;5.90;99.90
18506;DHT22;9382;53.242;10.438;2023-02-26T14:17:27;6.10;99.90
18506;DHT22;9382;53.242;10.438;2023-02-26T14:20:16;6.90;99.90
18506;DHT22;9382;53.242;10.438;2023-02-26T14:22:46;7.60;99.90
18506;DHT22;9382;53.242;10.438;2023-02-26T14:25:18;7.80;99.90
18506;DHT22;9382;53.242;10.438;2023-02-26T14:27:48;8.00;99.90
18506;DHT22;9382;53.242;10.438;2023-02-26T14:30:24;9.50;99.90
18506;DHT22;9382;53.242;10.438;2023-02-26T14:32:54;10.60;99.90
18506;DHT22;9382;53.242;10.438;2023-02-26T14:35:33;10.60;99.90
18506;DHT22;9382;53.242;10.438;2023-02-26T14:38:02;10.40;99.90
18506;DHT22;9382;53.242;10.438;2023-02-26T14:40:33;9.90;99.90
18506;DHT22;9382;53.242;10.438;2023-02-26T14:43:04;9.40;99.90
18506;DHT22;9382;53.242;10.438;2023-02-26T14:45:36;10.40;99.90
18506;DHT22;9382;53.242;10.438;2023-02-26T14:48:04;11.60;99.90
18506;DHT22;9382;53.242;10.438;2023-02-26T14:50:38;11.40;99.90
18506;DHT22;9382;53.242;10.438;2023-02-26T14:53:29;10.70;99.90
18506;DHT22;9382;53.242;10.438;2023-02-26T14:56:07;9.90;99.90
18506;DHT22;9382;53.242;10.438;2023-02-26T14:58:52;9.10;99.90
18506;DHT22;9382;53.242;10.438;2023-02-26T15:01:43;8.30;99.90
18506;DHT22;9382;53.242;10.438;2023-02-26T15:07:25;7.50;99.90
18506;DHT22;9382;53.242;10.438;2023-02-26T15:10:11;7.30;99.90
18506;DHT22;9382;53.242;10.438;2023-02-26T15:12:56;7.00;99.90
18506;DHT22;9382;53.242;10.438;2023-02-26T15:15:35;6.80;99.90
18506;DHT22;9382;53.242;10.438;2023-02-26T15:18:14;6.90;99.90
18506;DHT22;9382;53.242;10.438;2023-02-26T15:20:52;7.10;99.90
18506;DHT22;9382;53.242;10.438;2023-02-26T15:23:34;7.20;99.90
18506;DHT22;9382;53.242;10.438;2023-02-26T15:26:05;7.30;99.90
18506;DHT22;9382;53.242;10.438;2023-02-26T15:28:36;7.30;99.90
18506;DHT22;9382;53.242;10.438;2023-02-26T15:31:05;7.10;99.90
18506;DHT22;9382;53.242;10.438;2023-02-26T15:33:34;6.70;99.90
18506;DHT22;9382;53.242;10.438;2023-02-26T15:36:06;6.30;99.90
18506;DHT22;9382;53.242;10.438;2023-02-26T15:38:40;6.00;99.90
18506;DHT22;9382;53.242;10.438;2023-02-26T15:41:07;5.80;99.90
18506;DHT22;9382;53.242;10.438;2023-02-26T15:43:34;5.60;99.90
18506;DHT22;9382;53.242;10.438;2023-02-26T15:46:01;5.40;99.90
18506;DHT22;9382;53.242;10.438;2023-02-26T15:48:30;5.30;99.90
18506;DHT22;9382;53.242;10.438;2023-02-26T15:51:01;5.20;99.90
18506;DHT22;9382;53.242;10.438;2023-02-26T15:53:31;5.10;99.90
18506;DHT22;9382;53.242;10.438;2023-02-26T15:56:02;5.00;99.90
18506;DHT22;9382;53.242;10.438;2023-02-26T15:58:34;4.90;99.90
18506;DHT22;9382;53.242;10.438;2023-02-26T16:01:03;4.80;99.90
18506;DHT22;9382;53.242;10.438;2023-02-26T16:03:32;4.60;99.90
18506;DHT22;9382;53.242;10.438;2023-02-26T16:06:00;4.50;99.90
18506;DHT22;9382;53.242;10.438;2023-02-26T16:08:27;4.50;99.90
18506;DHT22;9382;53.242;10.438;2023-02-26T16:10:56;4.60;99.90
18506;DHT22;9382;53.242;10.438;2023-02-26T16:13:28;4.70;99.90
18506;DHT22;9382;53.242;10.438;2023-02-26T16:15:58;4.60;99.90
18506;DHT22;9382;53.242;10.438;2023-02-26T16:18:26;4.60;99.90
18506;DHT22;9382;53.242;10.438;2023-02-26T16:20:56;4.50;99.90
18506;DHT22;9382;53.242;10.438;2023-02-26T16:23:32;4.50;99.90
18506;DHT22;9382;53.242;10.438;2023-02-26T16:26:05;4.40;99.90
18506;DHT22;9382;53.242;10.438;2023-02-26T16:28:33;4.20;99.90
18506;DHT22;9382;53.242;10.438;2023-02-26T16:31:03;4.10;99.90
18506;DHT22;9382;53.242;10.438;2023-02-26T16:33:34;4.00;99.90
18506;DHT22;9382;53.242;10.438;2023-02-26T16:36:04;3.90;99.90